createdAt,value
2022-10-15T00:01:14.051Z,80.85
2022-10-15T00:03:43.254Z,88.78
2022-10-15T00:06:17.027Z,86.68
2022-10-15T00:08:45.104Z,81.03
2022-10-15T00:11:18.927Z,79.85
2022-10-15T00:13:46.373Z,79.32
2022-10-15T00:16:16.883Z,79.85
2022-10-15T00:18:44.112Z,82.32
2022-10-15T00:21:13.250Z,75.68
2022-10-15T00:23:40.443Z,79.93
2022-10-15T00:26:22.368Z,82.40
2022-10-15T00:28:52.039Z,76.95
2022-10-15T00:31:24.951Z,84.10
2022-10-15T00:33:53.218Z,79.65
2022-10-15T00:36:23.496Z,78.35
2022-10-15T00:38:51.569Z,75.90
2022-10-15T00:41:24.828Z,77.55
2022-10-15T00:43:53.495Z,70.10
2022-10-15T00:46:31.093Z,84.28
2022-10-15T00:49:24.650Z,77.80
2022-10-15T00:52:03.932Z,80.68
2022-10-15T00:54:35.086Z,81.28
2022-10-15T00:57:02.193Z,77.82
2022-10-15T00:59:31.776Z,71.43
2022-10-15T01:02:00.993Z,78.60
2022-10-15T01:04:29.567Z,75.60
2022-10-15T01:06:56.724Z,79.88
2022-10-15T01:09:24.206Z,74.97
2022-10-15T01:11:54.818Z,78.68
2022-10-15T01:14:53.380Z,78.57
2022-10-15T01:17:28.224Z,83.10
2022-10-15T01:19:58.177Z,73.60
2022-10-15T01:22:34.104Z,79.57
2022-10-15T01:25:15.470Z,75.80
2022-10-15T01:27:46.324Z,81.53
2022-10-15T01:30:24.538Z,80.95
2022-10-15T01:33:10.707Z,70.45
2022-10-15T01:36:05.562Z,71.72
2022-10-15T01:38:44.015Z,76.25
2022-10-15T01:41:36.559Z,74.90
2022-10-15T01:44:34.417Z,79.85
2022-10-15T01:47:28.093Z,81.32
2022-10-15T01:49:56.687Z,77.03
2022-10-15T01:52:28.095Z,76.00
2022-10-15T01:54:56.333Z,75.40
2022-10-15T01:57:26.486Z,67.50
2022-10-15T01:59:54.542Z,76.65
2022-10-15T02:02:24.220Z,71.00
2022-10-15T02:04:51.693Z,69.28
2022-10-15T02:07:38.305Z,78.40
2022-10-15T02:10:08.277Z,70.75
2022-10-15T02:13:13.112Z,77.80
2022-10-15T02:15:56.682Z,74.57
2022-10-15T02:18:44.937Z,75.57
2022-10-15T02:21:27.374Z,75.78
2022-10-15T02:24:06.711Z,74.30
2022-10-15T02:26:35.383Z,78.15
2022-10-15T02:29:06.255Z,72.60
2022-10-15T02:31:35.628Z,77.32
2022-10-15T02:34:06.525Z,72.68
2022-10-15T02:36:34.403Z,72.90
2022-10-15T02:39:07.366Z,74.93
2022-10-15T02:41:36.132Z,70.85
2022-10-15T02:44:04.317Z,76.25
2022-10-15T02:46:31.853Z,72.85
2022-10-15T02:48:59.568Z,74.00
2022-10-15T02:51:26.933Z,77.00
2022-10-15T02:53:54.105Z,69.97
2022-10-15T02:56:21.294Z,74.75
2022-10-15T02:58:48.824Z,69.72
2022-10-15T03:01:16.130Z,72.70
2022-10-15T03:03:43.416Z,77.43
2022-10-15T03:06:10.843Z,78.85
2022-10-15T03:08:38.107Z,66.43
2022-10-15T03:11:06.048Z,73.18
2022-10-15T03:13:36.688Z,71.97
2022-10-15T03:16:11.236Z,67.07
2022-10-15T03:18:41.100Z,72.57
2022-10-15T03:21:10.282Z,72.55
2022-10-15T03:23:38.598Z,70.35
2022-10-15T03:26:10.760Z,77.20
2022-10-15T03:28:38.576Z,74.88
2022-10-15T03:31:06.833Z,72.03
2022-10-15T03:33:34.111Z,70.72
2022-10-15T03:36:02.174Z,74.78
2022-10-15T03:38:29.579Z,77.43
2022-10-15T03:40:58.053Z,71.07
2022-10-15T03:43:38.936Z,74.63
2022-10-15T03:46:09.653Z,79.28
2022-10-15T03:48:41.145Z,82.00
2022-10-15T03:51:10.364Z,77.35
2022-10-15T03:53:38.412Z,76.15
2022-10-15T03:56:07.433Z,75.72
2022-10-15T03:58:38.332Z,77.53
2022-10-15T04:01:11.277Z,78.13
2022-10-15T04:03:39.135Z,74.88
2022-10-15T04:06:06.631Z,76.05
2022-10-15T04:08:35.202Z,75.75
2022-10-15T04:11:13.464Z,78.95
2022-10-15T04:13:40.772Z,78.25
2022-10-15T04:16:08.503Z,85.03
2022-10-15T04:18:35.824Z,78.88
2022-10-15T04:21:03.146Z,70.93
2022-10-15T04:23:33.405Z,77.55
2022-10-15T04:26:29.781Z,76.80
2022-10-15T04:29:00.291Z,77.03
2022-10-15T04:31:28.503Z,83.03
2022-10-15T04:33:57.463Z,69.25
2022-10-15T04:36:24.871Z,72.00
2022-10-15T04:39:00.048Z,79.18
2022-10-15T04:41:34.843Z,77.40
2022-10-15T04:44:08.882Z,70.10
2022-10-15T04:46:37.673Z,78.75
2022-10-15T04:49:21.097Z,71.13
2022-10-15T04:51:48.313Z,80.47
2022-10-15T04:54:21.387Z,70.57
2022-10-15T04:57:00.194Z,74.65
2022-10-15T04:59:27.860Z,71.13
2022-10-15T05:02:24.392Z,77.03
2022-10-15T05:04:56.805Z,71.15
2022-10-15T05:07:24.852Z,72.63
2022-10-15T05:09:53.924Z,76.13
2022-10-15T05:12:21.433Z,87.28
2022-10-15T05:14:48.638Z,72.40
2022-10-15T05:17:22.074Z,69.13
2022-10-15T05:19:49.654Z,77.55
2022-10-15T05:22:21.244Z,74.30
2022-10-15T05:24:55.094Z,75.47
2022-10-15T05:27:28.101Z,69.93
2022-10-15T05:29:55.403Z,79.80
2022-10-15T05:32:27.660Z,67.97
2022-10-15T05:34:54.976Z,68.18
2022-10-15T05:37:23.001Z,72.47
2022-10-15T05:39:50.376Z,72.93
2022-10-15T05:42:17.637Z,67.10
2022-10-15T05:44:52.371Z,68.80
2022-10-15T05:47:21.156Z,69.93
2022-10-15T05:49:48.743Z,75.57
2022-10-15T05:52:23.557Z,64.82
2022-10-15T05:55:09.560Z,73.10
2022-10-15T05:57:37.008Z,65.93
2022-10-15T06:00:06.600Z,67.90
2022-10-15T06:02:39.035Z,62.88
2022-10-15T06:05:06.920Z,68.07
2022-10-15T06:07:34.348Z,64.68
2022-10-15T06:10:05.753Z,68.88
2022-10-15T06:12:34.643Z,62.85
2022-10-15T06:15:02.006Z,65.55
2022-10-15T06:17:29.147Z,64.95
2022-10-15T06:19:56.195Z,66.25
2022-10-15T06:22:23.489Z,63.55
2022-10-15T06:24:50.844Z,63.22
2022-10-15T06:27:17.938Z,67.43
2022-10-15T06:29:45.117Z,65.85
2022-10-15T06:32:12.710Z,64.15
2022-10-15T06:34:43.875Z,64.20
2022-10-15T06:37:11.163Z,64.18
2022-10-15T06:39:38.433Z,66.78
2022-10-15T06:42:05.574Z,59.60
2022-10-15T06:44:42.245Z,64.60
2022-10-15T06:47:10.351Z,61.13
2022-10-15T06:49:37.593Z,64.68
2022-10-15T06:52:04.906Z,61.30
2022-10-15T06:54:32.167Z,62.60
2022-10-15T06:56:59.258Z,63.60
2022-10-15T06:59:26.445Z,65.85
2022-10-15T07:01:54.848Z,62.13
2022-10-15T07:04:24.513Z,65.90
2022-10-15T07:06:51.949Z,58.78
2022-10-15T07:09:20.738Z,60.97
2022-10-15T07:11:47.882Z,60.28
2022-10-15T07:14:14.944Z,62.85
2022-10-15T07:16:42.312Z,63.20
2022-10-15T07:19:09.399Z,84.75
2022-10-15T07:21:36.896Z,71.10
2022-10-15T07:24:04.414Z,71.07
2022-10-15T07:26:31.868Z,62.13
2022-10-15T07:29:03.802Z,62.17
2022-10-15T07:31:31.375Z,71.35
2022-10-15T07:33:58.827Z,69.63
2022-10-15T07:36:26.887Z,56.75
2022-10-15T07:38:54.015Z,62.17
2022-10-15T07:41:22.163Z,60.30
2022-10-15T07:43:52.458Z,68.57
2022-10-15T07:48:48.487Z,62.03
2022-10-15T07:51:15.675Z,57.65
2022-10-15T07:53:44.362Z,60.15
2022-10-15T07:56:12.705Z,52.50
2022-10-15T07:58:40.613Z,53.53
2022-10-15T08:01:10.146Z,56.65
2022-10-15T08:03:38.497Z,49.97
2022-10-15T08:06:07.658Z,54.53
2022-10-15T08:08:35.786Z,54.05
2022-10-15T08:11:08.384Z,49.42
2022-10-15T08:13:35.587Z,49.75
2022-10-15T08:16:03.215Z,54.08
2022-10-15T08:18:30.269Z,57.10
2022-10-15T08:21:00.794Z,51.03
2022-10-15T08:23:28.669Z,49.53
2022-10-15T08:25:58.578Z,46.53
2022-10-15T08:28:26.393Z,50.05
2022-10-15T08:30:53.873Z,47.55
2022-10-15T08:33:21.119Z,44.28
2022-10-15T08:35:48.384Z,47.30
2022-10-15T08:38:19.018Z,45.20
2022-10-15T08:40:55.735Z,46.50
2022-10-15T08:43:40.787Z,49.42
2022-10-15T08:46:21.115Z,46.40
2022-10-15T08:48:53.688Z,45.25
2022-10-15T08:51:24.476Z,45.60
2022-10-15T08:53:58.543Z,47.40
2022-10-15T08:56:34.263Z,43.05
2022-10-15T08:59:13.967Z,46.88
2022-10-15T09:01:59.259Z,46.45
2022-10-15T09:04:47.575Z,43.80
2022-10-15T09:07:33.563Z,45.17
2022-10-15T09:10:52.221Z,40.70
2022-10-15T09:13:32.079Z,46.58
2022-10-15T09:16:05.653Z,44.25
2022-10-15T09:18:36.584Z,43.30
2022-10-15T09:21:06.005Z,45.85
2022-10-15T09:23:34.869Z,44.08
2022-10-15T09:26:02.257Z,45.63
2022-10-15T09:28:39.886Z,49.50
2022-10-15T09:31:10.535Z,49.67
2022-10-15T09:33:47.102Z,47.30
2022-10-15T09:36:34.418Z,45.33
2022-10-15T09:39:23.192Z,46.15
2022-10-15T09:41:54.186Z,43.10
2022-10-15T09:44:24.863Z,46.40
2022-10-15T09:46:52.443Z,44.17
2022-10-15T09:49:31.261Z,48.33
2022-10-15T09:52:11.942Z,45.50
2022-10-15T09:55:30.013Z,49.97
2022-10-15T09:58:02.325Z,45.38
2022-10-15T10:00:59.907Z,42.95
2022-10-15T10:03:36.605Z,48.22
2022-10-15T10:06:14.760Z,44.15
2022-10-15T10:08:52.544Z,49.60
2022-10-15T10:11:21.188Z,46.20
2022-10-15T10:13:48.475Z,45.47
2022-10-15T10:16:18.559Z,44.65
2022-10-15T10:19:07.030Z,43.58
2022-10-15T10:21:37.658Z,44.38
2022-10-15T10:24:30.410Z,43.70
2022-10-15T10:27:02.713Z,40.17
2022-10-15T10:29:34.801Z,40.88
2022-10-15T10:32:19.487Z,40.55
2022-10-15T10:34:52.283Z,44.63
2022-10-15T10:37:21.170Z,42.78
2022-10-15T10:39:57.690Z,41.30
2022-10-15T10:42:24.981Z,47.88
2022-10-15T10:44:53.919Z,40.58
2022-10-15T10:47:22.322Z,44.25
2022-10-15T10:49:58.471Z,42.75
2022-10-15T10:52:27.136Z,41.53
2022-10-15T10:55:01.690Z,42.10
2022-10-15T10:57:40.759Z,40.90
2022-10-15T11:00:12.334Z,42.97
2022-10-15T11:02:44.093Z,43.88
2022-10-15T11:05:13.295Z,43.80
2022-10-15T11:08:14.506Z,43.30
2022-10-15T11:10:58.927Z,42.13
2022-10-15T11:13:41.235Z,42.22
2022-10-15T11:16:15.335Z,45.45
2022-10-15T11:19:19.856Z,44.15
2022-10-15T11:21:56.290Z,41.83
2022-10-15T11:24:33.523Z,42.00
2022-10-15T11:27:27.595Z,41.25
2022-10-15T11:30:29.773Z,41.75
2022-10-15T11:33:25.266Z,41.97
2022-10-15T11:36:11.224Z,38.97
2022-10-15T11:38:46.448Z,38.78
2022-10-15T11:41:28.639Z,43.40
2022-10-15T11:44:39.310Z,41.60
2022-10-15T11:47:47.639Z,35.85
2022-10-15T11:50:41.574Z,39.28
2022-10-15T11:53:33.662Z,34.92
2022-10-15T11:56:21.116Z,40.05
2022-10-15T11:59:00.905Z,36.67
2022-10-15T12:01:38.493Z,38.75
2022-10-15T12:07:05.289Z,40.05
2022-10-15T12:09:37.726Z,41.15
2022-10-15T12:12:12.534Z,37.97
2022-10-15T12:14:39.673Z,40.33
2022-10-15T12:17:17.642Z,38.80
2022-10-15T12:19:59.520Z,37.80
2022-10-15T12:22:40.567Z,35.63
2022-10-15T12:25:46.815Z,40.25
2022-10-15T12:28:20.982Z,37.35
2022-10-15T12:31:03.297Z,39.50
2022-10-15T12:33:45.533Z,39.83
2022-10-15T12:36:30.522Z,37.85
2022-10-15T12:39:16.215Z,40.17
2022-10-15T12:41:55.286Z,40.92
2022-10-15T12:44:33.856Z,41.17
2022-10-15T12:47:01.219Z,42.88
2022-10-15T12:49:30.582Z,40.92
2022-10-15T12:51:59.644Z,40.95
2022-10-15T12:54:34.495Z,37.40
2022-10-15T12:57:05.258Z,37.88
2022-10-15T12:59:44.784Z,41.65
2022-10-15T13:02:34.148Z,38.40
2022-10-15T13:05:01.668Z,38.20
2022-10-15T13:07:28.988Z,36.45
2022-10-15T13:09:56.566Z,40.42
2022-10-15T13:12:29.029Z,39.80
2022-10-15T13:15:04.053Z,34.17
2022-10-15T13:17:34.148Z,30.83
2022-10-15T13:20:08.204Z,33.72
2022-10-15T13:22:37.467Z,33.38
2022-10-15T13:25:05.187Z,30.92
2022-10-15T13:27:38.024Z,33.45
2022-10-15T13:30:14.486Z,34.92
2022-10-15T13:32:53.053Z,35.65
2022-10-15T13:35:26.407Z,33.97
2022-10-15T13:37:53.665Z,30.92
2022-10-15T13:40:29.680Z,31.25
2022-10-15T13:43:17.048Z,32.25
2022-10-15T13:45:55.258Z,33.38
2022-10-15T13:48:25.311Z,39.28
2022-10-15T13:51:04.988Z,36.08
2022-10-15T13:53:37.956Z,32.78
2022-10-15T13:56:36.291Z,31.40
2022-10-15T13:59:04.283Z,28.75
2022-10-15T14:01:34.699Z,33.05
2022-10-15T14:04:04.212Z,31.27
2022-10-15T14:06:34.756Z,30.97
2022-10-15T14:09:28.978Z,36.60
2022-10-15T14:12:00.669Z,27.95
2022-10-15T14:14:42.205Z,31.65
2022-10-15T14:17:17.595Z,25.38
2022-10-15T14:20:08.254Z,26.23
2022-10-15T14:22:41.394Z,25.88
2022-10-15T14:27:46.614Z,27.33
2022-10-15T14:30:21.086Z,27.67
2022-10-15T14:32:54.313Z,27.08
2022-10-15T14:35:31.242Z,28.10
2022-10-15T14:38:04.033Z,25.05
2022-10-15T14:40:31.543Z,23.65
2022-10-15T14:43:17.101Z,23.80
2022-10-15T14:45:58.602Z,25.02
2022-10-15T14:48:36.486Z,21.73
2022-10-15T14:51:06.748Z,18.60
2022-10-15T14:53:37.474Z,17.48
2022-10-15T14:56:14.389Z,15.35
2022-10-15T14:58:52.197Z,15.35
2022-10-15T15:01:21.008Z,18.25
2022-10-15T15:03:51.132Z,17.08
2022-10-15T15:06:18.926Z,17.65
2022-10-15T15:08:46.873Z,17.65
2022-10-15T15:11:18.386Z,20.75
2022-10-15T15:13:46.582Z,21.90
2022-10-15T15:16:15.251Z,22.35
2022-10-15T15:18:44.202Z,23.38
2022-10-15T15:21:15.449Z,19.30
2022-10-15T15:23:43.535Z,23.67
2022-10-15T15:26:10.807Z,20.45
2022-10-15T15:28:38.319Z,22.63
2022-10-15T15:31:08.642Z,26.25
2022-10-15T15:36:07.938Z,25.67
2022-10-15T15:41:14.795Z,28.17
2022-10-15T15:43:43.054Z,28.60
2022-10-15T15:46:10.861Z,29.73
2022-10-15T15:48:38.629Z,31.63
2022-10-15T15:51:10.353Z,29.25
2022-10-15T15:53:37.431Z,29.70
2022-10-15T15:56:04.854Z,26.33
2022-10-15T15:58:32.163Z,28.15
2022-10-15T16:00:59.643Z,26.85
2022-10-15T16:03:27.116Z,31.30
2022-10-15T16:05:54.576Z,30.98
2022-10-15T16:08:21.967Z,29.38
2022-10-15T16:10:49.262Z,31.15
2022-10-15T16:13:16.546Z,34.40
2022-10-15T16:15:43.672Z,31.13
2022-10-15T16:18:12.360Z,30.73
2022-10-15T16:20:46.375Z,31.95
2022-10-15T16:23:16.371Z,32.92
2022-10-15T16:25:43.704Z,31.10
2022-10-15T16:28:11.014Z,29.95
2022-10-15T16:30:38.117Z,35.90
2022-10-15T16:35:34.327Z,38.47
2022-10-15T16:38:01.585Z,31.35
2022-10-15T16:40:28.763Z,33.70
2022-10-15T16:42:55.904Z,42.25
2022-10-15T16:45:23.107Z,36.13
2022-10-15T16:47:50.331Z,35.78
2022-10-15T16:50:17.612Z,37.92
2022-10-15T16:52:44.834Z,36.58
2022-10-15T16:55:12.367Z,35.47
2022-10-15T16:57:39.724Z,35.67
2022-10-15T17:00:07.404Z,37.38
2022-10-15T17:02:34.526Z,35.70
2022-10-15T17:05:01.776Z,38.65
2022-10-15T17:07:28.897Z,37.22
2022-10-15T17:09:56.923Z,34.72
2022-10-15T17:12:24.355Z,36.17
2022-10-15T17:14:52.235Z,37.22
2022-10-15T17:17:20.058Z,37.67
2022-10-15T17:19:47.553Z,38.42
2022-10-15T17:22:14.713Z,36.45
2022-10-15T17:24:41.884Z,36.80
2022-10-15T17:27:09.033Z,36.00
2022-10-15T17:29:36.309Z,38.42
2022-10-15T17:32:04.327Z,36.97
2022-10-15T17:34:31.594Z,42.83
2022-10-15T17:36:58.694Z,38.30
2022-10-15T17:39:25.868Z,40.50
2022-10-15T17:41:53.023Z,40.65
2022-10-15T17:44:20.678Z,37.30
2022-10-15T17:49:18.955Z,37.17
2022-10-15T17:51:46.701Z,35.75
2022-10-15T17:54:14.326Z,38.78
2022-10-15T17:56:41.633Z,42.67
2022-10-15T17:59:11.864Z,37.92
2022-10-15T18:04:31.039Z,40.42
2022-10-15T18:06:58.403Z,38.15
2022-10-15T18:09:27.440Z,38.38
2022-10-15T18:12:01.288Z,37.92
2022-10-15T18:14:30.876Z,38.15
2022-10-15T18:16:58.075Z,40.35
2022-10-15T18:19:26.959Z,37.20
2022-10-15T18:21:54.454Z,40.45
2022-10-15T18:24:23.622Z,39.80
2022-10-15T18:26:51.545Z,40.63
2022-10-15T18:29:19.164Z,37.00
2022-10-15T18:31:47.410Z,41.25
2022-10-15T18:34:14.634Z,38.10
2022-10-15T18:36:43.846Z,38.05
2022-10-15T18:39:11.405Z,37.15
2022-10-15T18:41:40.349Z,37.83
2022-10-15T18:44:14.945Z,36.75
2022-10-15T18:46:45.195Z,45.35
2022-10-15T18:51:40.407Z,46.70
2022-10-15T18:54:08.857Z,42.55
2022-10-15T18:56:36.230Z,45.83
2022-10-15T18:59:03.516Z,42.85
2022-10-15T19:01:39.298Z,44.25
2022-10-15T19:04:10.433Z,40.35
2022-10-15T19:06:41.276Z,42.15
2022-10-15T19:09:12.334Z,43.35
2022-10-15T19:11:41.373Z,37.58
2022-10-15T19:14:09.012Z,40.10
2022-10-15T19:16:36.777Z,35.38
2022-10-15T19:19:08.875Z,38.70
2022-10-15T19:21:37.730Z,37.85
2022-10-15T19:24:05.818Z,38.25
2022-10-15T19:26:33.123Z,37.05
2022-10-15T19:29:02.379Z,37.40
2022-10-15T19:31:33.733Z,38.05
2022-10-15T19:34:01.088Z,37.63
2022-10-15T19:36:35.219Z,39.83
2022-10-15T19:39:12.092Z,38.20
2022-10-15T19:41:41.377Z,37.85
2022-10-15T19:44:09.516Z,38.50
2022-10-15T19:46:37.731Z,40.45
2022-10-15T19:49:07.915Z,38.03
2022-10-15T19:51:35.303Z,41.25
2022-10-15T19:54:02.567Z,40.28
2022-10-15T19:56:32.243Z,38.70
2022-10-15T19:59:07.073Z,44.90
2022-10-15T20:01:34.574Z,43.53
2022-10-15T20:04:05.918Z,42.13
2022-10-15T20:06:35.705Z,45.35
2022-10-15T20:09:03.713Z,42.10
2022-10-15T20:11:31.209Z,42.97
2022-10-15T20:14:01.914Z,41.28
2022-10-15T20:16:32.826Z,41.60
2022-10-15T20:19:03.094Z,47.42
2022-10-15T20:21:32.313Z,44.47
2022-10-15T20:23:59.956Z,45.92
2022-10-15T20:26:27.167Z,42.33
2022-10-15T20:28:54.511Z,42.88
2022-10-15T20:31:21.935Z,40.47
2022-10-15T20:33:49.685Z,40.10
2022-10-15T20:36:23.541Z,40.60
2022-10-15T20:38:51.724Z,42.20
2022-10-15T20:41:19.157Z,41.25
2022-10-15T20:43:54.639Z,42.65
2022-10-15T20:46:33.058Z,41.40
2022-10-15T20:49:09.517Z,42.40
2022-10-15T20:51:40.073Z,40.83
2022-10-15T20:56:34.713Z,46.95
2022-10-15T20:59:02.134Z,42.67
2022-10-15T21:01:29.365Z,45.88
2022-10-15T21:03:56.718Z,46.03
2022-10-15T21:06:24.000Z,43.45
2022-10-15T21:08:51.186Z,46.85
2022-10-15T21:11:18.735Z,44.05
2022-10-15T21:13:45.863Z,48.80
2022-10-15T21:16:13.576Z,41.60
2022-10-15T21:18:40.716Z,46.30
2022-10-15T21:21:10.472Z,43.15
2022-10-15T21:23:39.192Z,43.63
2022-10-15T21:26:07.276Z,47.65
2022-10-15T21:28:35.489Z,43.72
2022-10-15T21:31:10.263Z,44.40
2022-10-15T21:33:37.817Z,47.83
2022-10-15T21:36:15.747Z,44.45
2022-10-15T21:38:42.992Z,48.72
2022-10-15T21:41:10.632Z,47.47
2022-10-15T21:43:38.393Z,49.85
2022-10-15T21:46:11.953Z,47.35
2022-10-15T21:48:41.041Z,46.97
2022-10-15T21:51:14.771Z,48.20
2022-10-15T21:53:43.132Z,52.25
2022-10-15T21:56:11.481Z,55.97
2022-10-15T21:58:40.161Z,48.17
2022-10-15T22:01:25.219Z,48.70
2022-10-15T22:03:57.862Z,58.05
2022-10-15T22:06:26.704Z,50.85
2022-10-15T22:08:54.808Z,51.78
2022-10-15T22:14:02.140Z,54.55
2022-10-15T22:16:30.094Z,55.72
2022-10-15T22:18:57.701Z,64.78
2022-10-15T22:21:29.736Z,50.90
2022-10-15T22:24:06.724Z,47.55
2022-10-15T22:26:36.775Z,51.38
2022-10-15T22:29:06.561Z,46.13
2022-10-15T22:31:34.673Z,48.38
2022-10-15T22:34:02.598Z,44.25
2022-10-15T22:36:31.312Z,46.65
2022-10-15T22:39:05.619Z,49.92
2022-10-15T22:41:40.154Z,46.65
2022-10-15T22:44:08.923Z,46.35
2022-10-15T22:46:38.845Z,45.25
2022-10-15T22:49:08.157Z,45.60
2022-10-15T22:51:35.876Z,40.95
2022-10-15T22:54:02.992Z,45.28
2022-10-15T22:56:30.652Z,46.95
2022-10-15T22:58:58.896Z,46.30
2022-10-15T23:01:28.413Z,45.45
2022-10-15T23:04:01.841Z,46.85
2022-10-15T23:06:30.337Z,45.60
2022-10-15T23:08:58.263Z,48.85
2022-10-15T23:11:34.613Z,47.83
2022-10-15T23:14:11.605Z,51.13
2022-10-15T23:16:41.938Z,48.47
2022-10-15T23:19:16.648Z,44.28
2022-10-15T23:22:02.892Z,51.60
2022-10-15T23:24:30.203Z,50.60
2022-10-15T23:26:57.532Z,47.08
2022-10-15T23:29:26.285Z,49.92
2022-10-15T23:31:54.905Z,45.83
2022-10-15T23:34:24.874Z,46.88
2022-10-15T23:36:53.057Z,49.22
2022-10-15T23:39:23.808Z,43.88
2022-10-15T23:41:51.159Z,45.58
2022-10-15T23:44:18.742Z,47.08
2022-10-15T23:46:46.623Z,43.42
2022-10-15T23:49:14.285Z,41.15
2022-10-15T23:51:41.611Z,44.58
2022-10-15T23:54:18.055Z,40.17
2022-10-15T23:56:47.097Z,42.15
2022-10-15T23:59:15.153Z,41.92
